Jefferson Valley, New York
Current Conditions -  °F | °C
As of 6:53 AM on Saturday 22 Nov 2014 (Local Time) from KDXR Reporting Station
Clear Clear  
Wind Chill: 15°   Ceiling: Unl
Heat Index: 15°   Visibility: 10mi
Dew Point: 10°   Wind: 0mph
Humidity: 80%   Direction: NA
Pressure: 30.45"   Gusts: NA
Location:  41.34°N, 73.79°W
Report Text: KDXR 221153Z AUTO 00000KT 10SM CLR M09/M12 A3045 RMK AO2 SLP319 T10941122 11050 21094 53001
Loading
Personal Weather Stations






























Interactive Weather Map New forecast layout! Learn more

10-Day Weather Forecast

Advertisements
Track Severe Weather on mobile